createdAt,value
2018-12-27T00:03:26.232Z,12.70
2018-12-27T00:05:55.965Z,17.87
2018-12-27T00:08:44.844Z,18.17
2018-12-27T00:11:53.091Z,15.50
2018-12-27T00:14:41.963Z,13.40
2018-12-27T00:17:30.896Z,13.80
2018-12-27T00:20:19.908Z,17.47
2018-12-27T00:23:08.814Z,14.87
2018-12-27T00:26:17.192Z,18.03
2018-12-27T00:29:07.758Z,12.40
2018-12-27T00:32:09.686Z,14.40
2018-12-27T00:34:58.799Z,17.60
2018-12-27T00:37:47.746Z,22.80
2018-12-27T00:40:36.711Z,22.37
2018-12-27T00:43:25.633Z,19.17
2018-12-27T00:46:16.223Z,15.90
2018-12-27T00:49:05.302Z,17.87
2018-12-27T00:51:54.388Z,14.67
2018-12-27T00:54:43.380Z,16.53
2018-12-27T00:57:25.859Z,16.43
2018-12-27T01:00:14.871Z,14.10
2018-12-27T01:03:10.871Z,15.20
2018-12-27T01:06:14.024Z,13.03
2018-12-27T01:09:03.169Z,15.03
2018-12-27T01:12:11.531Z,14.33
2018-12-27T01:15:00.463Z,14.43
2018-12-27T01:17:49.475Z,14.90
2018-12-27T01:20:38.411Z,9.80
2018-12-27T01:23:28.967Z,11.97
2018-12-27T01:26:37.291Z,12.50
2018-12-27T01:29:26.216Z,11.47
2018-12-27T01:32:09.135Z,10.43
2018-12-27T01:34:58.067Z,9.87
2018-12-27T01:37:47.016Z,13.50
2018-12-27T01:43:35.731Z,13.47
2018-12-27T01:46:24.651Z,10.27
2018-12-27T01:49:33.035Z,15.83
2018-12-27T01:52:22.043Z,13.20
2018-12-27T01:54:51.766Z,13.67
2018-12-27T01:57:40.749Z,12.60
2018-12-27T02:00:29.695Z,13.07
2018-12-27T02:03:26.341Z,12.90
2018-12-27T02:06:28.751Z,15.07
2018-12-27T02:09:19.331Z,18.83
2018-12-27T02:15:19.491Z,13.17
2018-12-27T02:18:08.409Z,11.43
2018-12-27T02:20:57.428Z,13.20
2018-12-27T02:23:46.375Z,11.80
2018-12-27T02:26:35.507Z,9.10
2018-12-27T02:29:24.439Z,11.27
2018-12-27T02:32:28.002Z,16.77
2018-12-27T02:35:16.942Z,10.43
2018-12-27T02:38:05.915Z,13.00
2018-12-27T02:40:54.863Z,10.03
2018-12-27T02:43:37.127Z,9.30
2018-12-27T02:46:26.059Z,10.87
2018-12-27T02:49:15.071Z,13.33
2018-12-27T02:52:04.094Z,14.03
2018-12-27T02:54:53.013Z,13.90
2018-12-27T02:57:41.937Z,9.80
2018-12-27T03:03:58.424Z,10.30
2018-12-27T03:06:47.351Z,17.23
2018-12-27T03:09:36.278Z,11.50
2018-12-27T03:12:25.200Z,10.60
2018-12-27T03:15:33.556Z,14.17
2018-12-27T03:18:41.921Z,11.10
2018-12-27T03:21:30.894Z,14.10
2018-12-27T03:24:39.261Z,37.03
2018-12-27T03:27:28.332Z,13.27
2018-12-27T03:30:17.272Z,9.00
2018-12-27T03:33:18.684Z,7.93
2018-12-27T03:36:07.619Z,5.40
2018-12-27T03:38:56.623Z,7.57
2018-12-27T03:41:45.539Z,11.50
2018-12-27T03:44:34.486Z,9.97
2018-12-27T03:47:23.475Z,8.90
2018-12-27T03:50:12.483Z,8.03
2018-12-27T03:53:20.819Z,7.30
2018-12-27T03:56:11.405Z,9.50
2018-12-27T03:59:13.095Z,8.00
2018-12-27T04:02:02.098Z,10.73
2018-12-27T04:04:51.135Z,7.67
2018-12-27T04:07:40.063Z,17.90
2018-12-27T04:10:29.074Z,11.90
2018-12-27T04:13:18.056Z,11.10
2018-12-27T04:16:26.335Z,14.60
2018-12-27T04:19:34.600Z,22.67
2018-12-27T04:22:23.463Z,25.37
2018-12-27T04:25:12.396Z,15.90
2018-12-27T04:28:20.746Z,7.43
2018-12-27T04:31:09.748Z,9.67
2018-12-27T04:33:58.936Z,11.67
2018-12-27T04:36:48.029Z,13.63
2018-12-27T04:39:37.000Z,8.23
2018-12-27T04:42:25.864Z,6.40
2018-12-27T04:45:14.792Z,14.20
2018-12-27T04:48:03.738Z,11.27
2018-12-27T04:50:52.588Z,9.10
2018-12-27T04:53:43.059Z,11.13
2018-12-27T04:56:51.355Z,11.00
2018-12-27T04:59:34.086Z,11.27
2018-12-27T05:02:23.015Z,11.30
2018-12-27T05:08:40.947Z,12.83
2018-12-27T05:11:29.846Z,9.40
2018-12-27T05:14:18.766Z,10.30
2018-12-27T05:17:07.686Z,9.17
2018-12-27T05:19:58.183Z,11.47
2018-12-27T05:22:47.039Z,6.57
2018-12-27T05:25:35.988Z,13.40
2018-12-27T05:28:24.903Z,9.13
2018-12-27T05:31:33.175Z,10.60
2018-12-27T05:34:26.129Z,7.40
2018-12-27T05:41:01.055Z,12.57
2018-12-27T05:44:09.524Z,10.50
2018-12-27T05:46:58.390Z,11.87
2018-12-27T05:50:06.775Z,16.73
2018-12-27T10:48:43.085Z,12.03
2018-12-27T10:51:32.026Z,11.00
2018-12-27T10:54:40.300Z,11.47
2018-12-27T10:57:48.691Z,13.90
2018-12-27T11:00:37.613Z,15.43
2018-12-27T11:09:42.931Z,13.30
2018-12-27T11:12:33.406Z,19.13
2018-12-27T11:15:22.421Z,15.27
2018-12-27T12:17:15.426Z,10.37
2018-12-27T12:20:25.006Z,19.20
2018-12-27T12:23:13.987Z,14.00
2018-12-27T12:26:02.874Z,14.33
2018-12-27T12:29:11.203Z,12.40
2018-12-27T12:32:00.052Z,11.70
2018-12-27T12:34:48.963Z,18.07
2018-12-27T12:37:57.547Z,15.37
2018-12-27T12:40:48.188Z,14.80
2018-12-27T12:43:30.780Z,14.93
2018-12-27T12:46:19.839Z,15.60
2018-12-27T12:52:36.165Z,15.63
2018-12-27T12:55:25.158Z,20.57
2018-12-27T12:58:33.599Z,19.12
2018-12-27T13:01:22.574Z,15.20
2018-12-27T13:04:11.468Z,17.00
2018-12-27T13:07:00.379Z,12.60
2018-12-27T13:09:49.372Z,21.07
2018-12-27T13:12:38.263Z,16.30
2018-12-27T13:15:27.146Z,15.60
2018-12-27T13:18:35.419Z,14.53
2018-12-27T13:21:25.904Z,17.87
2018-12-27T13:24:34.295Z,18.73
2018-12-27T13:27:23.229Z,18.10
2018-12-27T13:30:12.155Z,34.50
2018-12-27T13:33:20.464Z,27.40
2018-12-27T13:36:25.396Z,18.20
2018-12-27T13:39:12.447Z,13.40
2018-12-27T13:42:01.544Z,17.13
2018-12-27T13:44:52.098Z,26.03
2018-12-27T13:47:40.939Z,16.87
2018-12-27T13:50:49.221Z,19.97
2018-12-27T13:53:38.288Z,23.40
2018-12-27T13:56:38.943Z,17.77
2018-12-27T13:59:21.888Z,20.33
2018-12-27T14:02:10.986Z,16.00
2018-12-27T14:05:00.091Z,16.50
2018-12-27T14:08:10.034Z,14.63
2018-12-27T14:10:59.070Z,20.50
2018-12-27T14:14:30.689Z,23.60
2018-12-27T14:17:22.090Z,25.00
2018-12-27T14:20:11.597Z,20.03
2018-12-27T14:23:41.112Z,16.83
2018-12-27T14:29:34.903Z,23.53
2018-12-27T14:33:05.281Z,32.17
2018-12-27T14:35:57.719Z,23.67
2018-12-27T14:39:38.755Z,24.90
2018-12-27T14:45:04.562Z,19.33
2018-12-27T14:47:54.176Z,27.10
2018-12-27T14:50:43.777Z,20.47
2018-12-27T14:57:02.139Z,19.90
2018-12-27T14:59:44.745Z,12.07
2018-12-27T15:02:33.677Z,17.07
2018-12-27T15:05:22.857Z,16.10
2018-12-27T15:14:59.493Z,13.70
2018-12-27T15:21:38.796Z,16.60
2018-12-27T15:24:28.043Z,23.53
2018-12-27T15:27:16.962Z,22.87
2018-12-27T15:30:06.017Z,25.43
2018-12-27T15:32:54.991Z,20.20
2018-12-27T15:36:03.377Z,21.50
2018-12-27T15:38:52.226Z,23.80
2018-12-27T15:41:41.203Z,26.17
2018-12-27T15:44:30.180Z,42.27
2018-12-27T15:47:19.124Z,31.15
2018-12-27T15:50:08.206Z,21.30
2018-12-27T15:53:16.596Z,21.47
2018-12-27T15:58:46.750Z,20.73
2018-12-27T16:01:29.311Z,19.97
2018-12-27T16:04:18.245Z,26.50
2018-12-27T16:07:07.174Z,30.60
2018-12-27T16:10:15.455Z,22.07
2018-12-27T16:13:04.398Z,27.00
2018-12-27T16:15:53.252Z,22.47
2018-12-27T16:19:01.568Z,21.23
2018-12-27T16:21:50.757Z,19.53
2018-12-27T16:24:20.420Z,24.93
2018-12-27T16:27:28.868Z,20.47
2018-12-27T16:30:17.871Z,24.43
2018-12-27T16:36:07.331Z,21.50
2018-12-27T16:39:15.817Z,19.50
2018-12-27T16:42:04.859Z,29.37
2018-12-27T16:44:53.839Z,29.25
2018-12-27T16:47:43.243Z,24.00
2018-12-27T16:50:52.863Z,27.40
2018-12-27T16:53:41.804Z,26.73
2018-12-27T16:56:30.785Z,36.50
2018-12-27T16:59:13.789Z,25.33
2018-12-27T17:02:02.909Z,24.10
2018-12-27T17:05:11.237Z,31.17
2018-12-27T17:08:00.303Z,31.07
2018-12-27T17:10:49.221Z,30.20
2018-12-27T17:13:38.088Z,26.60
2018-12-27T17:16:27.015Z,30.53
2018-12-27T17:19:15.871Z,34.60
2018-12-27T17:22:04.867Z,35.80
2018-12-27T17:24:53.938Z,21.20
2018-12-27T17:27:42.871Z,18.17
2018-12-27T17:30:51.323Z,23.10
2018-12-27T17:33:40.523Z,16.10
2018-12-27T17:36:29.424Z,26.53
2018-12-27T17:39:37.714Z,22.00
2018-12-27T17:42:26.629Z,23.60
2018-12-27T17:45:09.025Z,24.37
2018-12-27T17:47:57.891Z,14.93
2018-12-27T17:50:46.845Z,20.03
2018-12-27T17:56:45.216Z,18.07
2018-12-27T17:59:46.863Z,20.27
2018-12-27T18:02:35.894Z,23.67
2018-12-27T18:05:44.185Z,21.87
2018-12-27T18:08:33.098Z,22.70
2018-12-27T18:11:22.212Z,21.07
2018-12-27T18:14:11.302Z,30.70
2018-12-27T18:17:00.178Z,28.80
2018-12-27T18:19:49.177Z,23.97
2018-12-27T18:22:19.001Z,22.23
2018-12-27T18:25:07.927Z,28.00
2018-12-27T18:27:57.103Z,27.90
2018-12-27T18:30:46.092Z,27.47
2018-12-27T18:33:35.289Z,30.60
2018-12-27T18:36:24.611Z,25.20
2018-12-27T18:39:33.011Z,29.00
2018-12-27T18:42:22.059Z,22.33
2018-12-27T18:45:05.501Z,30.30
2018-12-27T18:47:54.688Z,27.27
2018-12-27T18:51:03.147Z,25.03
2018-12-27T18:53:52.024Z,30.37
2018-12-27T18:56:41.027Z,22.73
2018-12-27T18:59:42.928Z,27.90
2018-12-27T19:02:31.953Z,24.47
2018-12-27T19:05:20.884Z,21.53
2018-12-27T19:08:09.831Z,18.90
2018-12-27T19:11:18.085Z,22.63
2018-12-27T19:14:07.269Z,22.67
2018-12-27T19:16:56.228Z,26.73
2018-12-27T19:23:06.867Z,25.23
2018-12-27T19:25:56.246Z,22.50
2018-12-27T19:28:45.350Z,28.77
2018-12-27T19:31:34.424Z,23.03
2018-12-27T19:34:23.395Z,18.50
2018-12-27T19:37:12.419Z,24.00
2018-12-27T19:40:01.480Z,24.60
2018-12-27T19:43:02.514Z,30.90
2018-12-27T19:45:53.792Z,35.60
2018-12-27T19:48:42.661Z,26.20
2018-12-27T19:51:31.690Z,29.33
2018-12-27T19:54:24.475Z,27.93
2018-12-27T19:57:32.849Z,27.70
2018-12-27T20:00:21.819Z,33.97
2018-12-27T20:03:10.706Z,26.13
2018-12-27T20:06:14.875Z,35.23
2018-12-27T20:09:09.900Z,24.23
2018-12-27T20:12:18.265Z,23.83
2018-12-27T20:15:26.719Z,23.40
2018-12-27T20:18:15.659Z,20.57
2018-12-27T20:21:23.957Z,22.87
2018-12-27T20:24:32.314Z,24.20
2018-12-27T20:27:21.186Z,18.93
2018-12-27T20:30:10.404Z,20.37
2018-12-27T20:32:59.484Z,22.30
2018-12-27T20:35:48.503Z,22.40
2018-12-27T20:38:31.600Z,23.83
2018-12-27T20:41:22.108Z,25.43
2018-12-27T20:44:11.039Z,28.50
2018-12-27T20:47:00.183Z,23.73
2018-12-27T20:50:08.475Z,19.47
2018-12-27T20:52:57.403Z,20.67
2018-12-27T20:59:13.676Z,22.00
2018-12-27T21:02:22.028Z,22.33
2018-12-27T21:05:10.987Z,18.10
2018-12-27T21:08:19.368Z,22.57
2018-12-27T21:11:08.274Z,23.93
2018-12-27T21:13:57.302Z,19.10
2018-12-27T21:17:05.575Z,15.83
2018-12-27T21:20:13.948Z,17.97
2018-12-27T21:23:02.873Z,21.47
2018-12-27T21:26:11.245Z,22.40
2018-12-27T21:29:00.107Z,19.07
2018-12-27T21:32:08.437Z,21.00
2018-12-27T21:34:57.315Z,27.93
2018-12-27T21:38:05.670Z,22.90
2018-12-27T21:41:14.064Z,16.43
2018-12-27T21:44:03.054Z,22.07
2018-12-27T21:46:52.001Z,17.83
2018-12-27T21:49:41.064Z,15.07
2018-12-27T21:52:29.933Z,18.80
2018-12-27T21:55:18.889Z,26.63
2018-12-27T21:58:07.819Z,15.83
2018-12-27T22:00:49.987Z,18.20
2018-12-27T22:03:38.904Z,22.20
2018-12-27T22:06:27.969Z,18.63
2018-12-27T22:09:17.030Z,32.40
2018-12-27T22:12:05.925Z,19.83
2018-12-27T22:14:54.889Z,23.47
2018-12-27T22:17:43.881Z,20.03
2018-12-27T22:20:13.513Z,29.03
2018-12-27T22:23:21.899Z,18.40
2018-12-27T22:26:30.206Z,19.27
2018-12-27T22:29:19.217Z,21.40
2018-12-27T22:32:08.136Z,25.10
2018-12-27T22:35:16.492Z,22.90
2018-12-27T22:38:05.464Z,23.60
2018-12-27T22:40:48.419Z,23.40
2018-12-27T22:43:37.270Z,20.80
2018-12-27T22:46:19.720Z,24.87
2018-12-27T22:49:08.730Z,24.53
2018-12-27T22:52:17.031Z,21.13
2018-12-27T22:55:25.430Z,17.17
2018-12-27T23:01:16.645Z,17.87
2018-12-27T23:04:05.499Z,28.17
2018-12-27T23:06:54.417Z,15.93
2018-12-27T23:12:45.477Z,21.30
2018-12-27T23:15:34.428Z,17.00
2018-12-27T23:18:23.427Z,17.67
2018-12-27T23:21:12.309Z,18.83
2018-12-27T23:24:01.287Z,14.63
2018-12-27T23:26:50.396Z,19.03
2018-12-27T23:29:39.310Z,14.17
2018-12-27T23:32:28.394Z,17.40
2018-12-27T23:35:17.373Z,15.67
2018-12-27T23:38:06.322Z,17.67
2018-12-27T23:40:55.331Z,16.03
2018-12-27T23:43:44.162Z,13.07
2018-12-27T23:46:33.049Z,18.30
2018-12-27T23:49:41.455Z,18.63
2018-12-27T23:52:30.415Z,18.50
2018-12-27T23:55:19.262Z,15.93
2018-12-27T23:58:08.195Z,17.23
